»·PEaware :: N737RR L52-L88

N737RR :: L52-L88

FLIGHT INFORMATION

Flight Status: Arrived
Operator: Privately registered:
United States
More flights under this callsign
Pilot: Nicole M. (10129)
Aircraft: CESSNA 172 SKYHAWK
(C172)
More flights by this aircraft type
Origin: L52 Oceano Co
United States
Destination: L88 New Cuyama
United States
More flights between these airports :: More routes between these airports
Route: TO L88 VIA THE FLW VOR
File this flight plan on PilotEdge
Remarks: CAT-01 Flight; Non-towered to non-towered
Altitude:
(Current/Filed)
7,500ft
Speed:
(Current/Filed)
115kts
Departed: 07-Jan-18 06:54 PM
Arrived: 07-Jan-18 07:27 PM
Distance/Time
Traveled:
47nm/0:33
Distance/Time
To Go:
Arrived

Flight Plot

Page will automatically refresh every two minutes.

Flight plan parsing failed; only flown route is shown


Map Options




Map Legend


Flown Route
Filed Route
Departure Airport
Arrival Airport
Navaid (VOR, NDB)
Fix

Horizontal Profiles

Position Reports

Time Latitude Longitude Heading Altitude Ground
Speed
07-Jan-18 18:50 35.103492 -120.624072 201 17ft 0kts
07-Jan-18 18:51 35.103491 -120.624073 201 17ft 0kts
07-Jan-18 18:52 35.103489 -120.624074 201 17ft 0kts
07-Jan-18 18:53 35.103486 -120.624075 201 17ft 0kts
07-Jan-18 18:54 35.103483 -120.624076 201 17ft 0kts
07-Jan-18 18:55 35.103178 -120.624243 174 17ft 0kts
07-Jan-18 18:56 35.101922 -120.622395 209 17ft 4kts
07-Jan-18 18:57 35.100745 -120.621911 125 17ft 18kts
07-Jan-18 18:58 35.099317 -120.619221 41 17ft 0kts
07-Jan-18 18:59 35.099388 -120.619169 27 17ft 0kts
07-Jan-18 19:00 35.104517 -120.627774 299 347ft 65kts
07-Jan-18 19:01 35.117696 -120.640071 5 1155ft 86kts
07-Jan-18 19:02 35.124069 -120.620379 93 2127ft 79kts
07-Jan-18 19:03 35.124261 -120.594462 101 3029ft 87kts
07-Jan-18 19:04 35.131778 -120.570973 23 3607ft 110kts
07-Jan-18 19:05 35.136642 -120.546336 85 4623ft 78kts
07-Jan-18 19:06 35.133695 -120.520803 94 5292ft 83kts
07-Jan-18 19:07 35.137451 -120.492735 106 5867ft 84kts
07-Jan-18 19:08 35.124652 -120.468310 127 6684ft 86kts
07-Jan-18 19:09 35.116939 -120.440117 93 7472ft 84kts
07-Jan-18 19:10 35.108272 -120.404940 118 7329ft 132kts
07-Jan-18 19:11 35.103509 -120.359535 88 7208ft 132kts
07-Jan-18 19:12 35.110803 -120.315289 87 7109ft 118kts
07-Jan-18 19:13 35.112597 -120.273571 100 7126ft 117kts
07-Jan-18 19:14 35.106251 -120.241734 103 7370ft 111kts
07-Jan-18 19:15 35.102078 -120.196509 89 7384ft 112kts
07-Jan-18 19:16 35.105844 -120.157864 87 7396ft 113kts
07-Jan-18 19:17 35.106379 -120.127034 91 7612ft 104kts
07-Jan-18 19:18 35.105869 -120.081534 92 7441ft 121kts
07-Jan-18 19:19 35.100552 -120.048452 113 7292ft 124kts
07-Jan-18 19:20 35.084181 -120.006952 117 7385ft 116kts
07-Jan-18 19:21 35.070249 -119.978866 123 7407ft 115kts
07-Jan-18 19:22 35.054004 -119.945144 119 7415ft 115kts
07-Jan-18 19:23 35.036487 -119.912252 124 7419ft 115kts
07-Jan-18 19:24 35.018537 -119.881078 138 7390ft 113kts
07-Jan-18 19:25 35.000039 -119.849284 108 7288ft 120kts
07-Jan-18 19:26 34.998812 -119.809365 106 7105ft 125kts
07-Jan-18 19:27 34.991284 -119.770628 107 6241ft 116kts
07-Jan-18 19:28 34.970100 -119.741398 135 5310ft 112kts
07-Jan-18 19:29 34.943668 -119.719472 148 3946ft 118kts
07-Jan-18 19:30 34.925351 -119.688981 116 3137ft 82kts
07-Jan-18 19:31 34.924229 -119.665279 3 2940ft 90kts
07-Jan-18 19:32 34.937010 -119.687230 293 2210ft 46kts
07-Jan-18 19:33 34.939467 -119.693565 348 2206ft 7kts
07-Jan-18 19:34 34.939926 -119.693568 207 2206ft 0kts
07-Jan-18 19:35 34.939926 -119.693568 207 2206ft 0kts
07-Jan-18 19:36 34.939926 -119.693568 207 2206ft 0kts
07-Jan-18 19:37 34.939926 -119.693568 207 2206ft 0kts
07-Jan-18 19:38 34.939926 -119.693568 207 2206ft 0kts
07-Jan-18 19:39 34.939926 -119.693568 207 2206ft 0kts
07-Jan-18 19:40 34.939926 -119.693568 207 2206ft 0kts
07-Jan-18 19:41 34.939926 -119.693568 207 2206ft 0kts
07-Jan-18 19:42 34.939926 -119.693568 207 2206ft 0kts
07-Jan-18 19:43 34.939926 -119.693568 207 2206ft 0kts

Navigation Log

Ident Type
Flight plan parsing failed, navigation log unavailable